createdAt,value
2019-01-31T20:44:13.331Z,48.30
2019-01-31T20:46:48.963Z,49.27
2019-01-31T20:49:22.530Z,52.58
2019-01-31T20:51:58.382Z,56.42
2019-01-31T20:54:33.520Z,39.23
2019-01-31T20:57:06.814Z,61.75
2019-01-31T21:02:12.135Z,46.55
2019-01-31T21:04:46.942Z,38.50
2019-01-31T21:07:22.278Z,44.65
2019-01-31T21:09:59.671Z,47.55
2019-01-31T21:12:35.316Z,48.60
2019-01-31T21:15:12.937Z,52.55
2019-01-31T21:17:44.666Z,46.70
2019-01-31T21:20:18.578Z,37.73
2019-01-31T21:22:52.360Z,27.77
2019-01-31T21:25:25.684Z,33.13
2019-01-31T21:30:32.193Z,44.83
2019-01-31T21:33:06.355Z,54.55
2019-01-31T21:35:40.515Z,51.68
2019-01-31T21:38:14.853Z,52.20
2019-01-31T21:40:49.145Z,53.52
2019-01-31T21:43:23.171Z,66.57
2019-01-31T21:45:59.313Z,85.28
2019-01-31T21:48:44.758Z,73.60
2019-01-31T21:51:30.609Z,55.58
2019-01-31T21:54:16.820Z,50.55
2019-01-31T21:57:02.947Z,66.92
2019-01-31T21:59:46.960Z,51.13
2019-01-31T22:02:20.836Z,60.38
2019-01-31T22:05:07.080Z,42.13
2019-01-31T22:07:41.951Z,30.15
2019-01-31T22:10:18.469Z,39.13
2019-01-31T22:12:55.214Z,42.98
2019-01-31T22:15:33.727Z,45.88
2019-01-31T22:18:08.508Z,42.78
2019-01-31T22:20:42.941Z,22.13
2019-01-31T22:23:17.116Z,27.05
2019-01-31T22:25:51.535Z,39.00
2019-01-31T22:28:25.340Z,49.75
2019-01-31T22:30:59.762Z,45.12
2019-01-31T22:33:33.937Z,49.80
2019-01-31T22:36:08.009Z,50.17
2019-01-31T22:38:45.406Z,52.73
2019-01-31T22:41:18.459Z,51.48
2019-01-31T22:43:52.919Z,52.17
2019-01-31T22:46:27.066Z,44.40
2019-01-31T22:49:13.371Z,29.30
2019-01-31T22:51:58.114Z,21.27
2019-01-31T22:54:36.797Z,22.22
2019-01-31T22:57:10.783Z,25.35
2019-01-31T22:59:45.135Z,42.93
2019-01-31T23:02:19.356Z,33.65
2019-01-31T23:04:53.915Z,23.57
2019-01-31T23:07:28.291Z,21.27
2019-01-31T23:10:02.446Z,22.13
2019-01-31T23:12:50.048Z,25.20
2019-01-31T23:15:36.481Z,17.50
2019-01-31T23:18:20.038Z,17.52
2019-01-31T23:20:55.291Z,15.83
2019-01-31T23:23:29.069Z,14.78
2019-01-31T23:26:10.745Z,14.78
2019-01-31T23:28:44.813Z,19.00
2019-01-31T23:31:19.225Z,18.45
2019-01-31T23:33:53.533Z,21.35
2019-01-31T23:36:30.685Z,20.75
2019-01-31T23:39:06.472Z,21.10
2019-01-31T23:41:42.215Z,21.27
2019-01-31T23:44:17.363Z,21.35
2019-01-31T23:46:50.998Z,21.60
2019-01-31T23:49:25.526Z,16.32
2019-01-31T23:52:11.505Z,16.37
2019-01-31T23:54:55.149Z,20.00
2019-01-31T23:57:29.284Z,25.12
